createdAt,value
2023-04-20T00:00:11.560Z,8.77
2023-04-20T00:02:42.815Z,8.63
2023-04-20T00:05:12.611Z,8.63
2023-04-20T00:07:41.736Z,9.52
2023-04-20T00:10:10.673Z,9.40
2023-04-20T00:12:38.967Z,9.52
2023-04-20T00:15:07.908Z,11.38
2023-04-20T00:17:38.511Z,10.52
2023-04-20T00:20:09.963Z,11.48
2023-04-20T00:22:38.434Z,11.75
2023-04-20T00:25:07.170Z,12.23
2023-04-20T00:27:35.413Z,11.98
2023-04-20T00:30:03.805Z,12.77
2023-04-20T00:32:32.276Z,11.90
2023-04-20T00:35:01.267Z,12.32
2023-04-20T00:37:29.755Z,15.07
2023-04-20T00:39:58.574Z,13.20
2023-04-20T00:42:26.826Z,13.65
2023-04-20T00:44:55.039Z,13.13
2023-04-20T00:47:24.126Z,13.10
2023-04-20T00:49:53.672Z,11.85
2023-04-20T00:52:22.412Z,13.88
2023-04-20T00:54:51.227Z,12.45
2023-04-20T00:57:23.992Z,12.43
2023-04-20T00:59:52.393Z,13.68
2023-04-20T01:02:23.821Z,13.80
2023-04-20T01:04:52.261Z,14.60
2023-04-20T01:07:20.524Z,14.38
2023-04-20T01:09:51.238Z,14.45
2023-04-20T01:12:19.507Z,14.23
2023-04-20T01:14:47.722Z,13.48
2023-04-20T01:17:16.027Z,13.88
2023-04-20T01:19:47.155Z,12.95
2023-04-20T01:22:19.957Z,15.02
2023-04-20T01:24:49.017Z,14.85
2023-04-20T01:27:17.320Z,14.20
2023-04-20T01:29:46.494Z,15.82
2023-04-20T01:32:14.778Z,14.35
2023-04-20T01:34:42.997Z,15.13
2023-04-20T01:37:11.223Z,15.10
2023-04-20T01:39:41.051Z,12.85
2023-04-20T01:42:09.513Z,13.38
2023-04-20T01:44:38.938Z,12.93
2023-04-20T01:47:07.288Z,13.95
2023-04-20T01:49:35.592Z,13.50
2023-04-20T01:52:03.864Z,13.02
2023-04-20T01:54:32.079Z,13.93
2023-04-20T01:57:00.772Z,13.93
2023-04-20T01:59:28.954Z,15.48
2023-04-20T02:01:57.280Z,14.52
2023-04-20T02:04:26.080Z,15.32
2023-04-20T02:06:54.352Z,14.40
2023-04-20T02:09:22.554Z,13.52
2023-04-20T02:11:51.263Z,14.45
2023-04-20T02:14:19.535Z,14.43
2023-04-20T02:16:48.866Z,16.20
2023-04-20T02:19:17.495Z,14.05
2023-04-20T02:21:46.471Z,15.85
2023-04-20T02:24:14.715Z,15.38
2023-04-20T02:26:42.964Z,13.55
2023-04-20T02:29:11.216Z,15.48
2023-04-20T02:31:39.494Z,14.13
2023-04-20T02:34:09.612Z,13.88
2023-04-20T02:36:37.969Z,14.93
2023-04-20T02:39:06.189Z,13.50
2023-04-20T02:41:35.941Z,15.07
2023-04-20T02:44:05.492Z,15.43
2023-04-20T02:46:36.165Z,15.23
2023-04-20T02:49:04.550Z,13.38
2023-04-20T02:51:37.302Z,14.50
2023-04-20T02:54:05.953Z,12.68
2023-04-20T02:56:34.202Z,13.30
2023-04-20T02:59:06.865Z,13.95
2023-04-20T03:01:48.079Z,13.38
2023-04-20T03:04:21.147Z,12.63
2023-04-20T03:07:10.141Z,13.00
2023-04-20T03:09:40.118Z,12.60
2023-04-20T03:12:24.821Z,13.15
2023-04-20T03:15:10.182Z,13.95
2023-04-20T03:18:01.437Z,12.57
2023-04-20T03:20:30.020Z,13.77
2023-04-20T03:22:58.336Z,13.70
2023-04-20T03:25:29.574Z,12.35
2023-04-20T03:28:03.799Z,13.73
2023-04-20T03:30:32.606Z,13.55
2023-04-20T03:33:05.820Z,12.68
2023-04-20T03:35:34.392Z,12.48
2023-04-20T03:38:02.656Z,11.80
2023-04-20T03:40:30.993Z,11.90
2023-04-20T03:42:59.239Z,12.38
2023-04-20T03:45:29.572Z,11.95
2023-04-20T03:47:57.968Z,11.25
2023-04-20T03:50:27.333Z,11.75
2023-04-20T03:52:56.076Z,12.50
2023-04-20T03:55:24.528Z,13.07
2023-04-20T03:57:59.426Z,12.23
2023-04-20T04:00:32.492Z,13.25
2023-04-20T04:03:08.998Z,12.18
2023-04-20T04:05:37.470Z,12.18
2023-04-20T04:08:05.927Z,10.75
2023-04-20T04:10:34.304Z,12.00
2023-04-20T04:13:02.573Z,10.75
2023-04-20T04:15:32.155Z,10.02
2023-04-20T04:18:05.361Z,11.27
2023-04-20T04:20:35.053Z,9.82
2023-04-20T04:23:03.529Z,10.40
2023-04-20T04:25:40.370Z,9.55
2023-04-20T04:28:09.860Z,10.05
2023-04-20T04:30:43.508Z,9.07
2023-04-20T04:33:14.728Z,9.65
2023-04-20T04:35:46.127Z,9.15
2023-04-20T04:38:15.551Z,9.40
2023-04-20T04:40:47.264Z,8.23
2023-04-20T04:43:16.147Z,8.48
2023-04-20T04:45:51.652Z,8.48
2023-04-20T04:48:20.929Z,8.20
2023-04-20T04:50:49.161Z,7.97
2023-04-20T04:53:17.366Z,7.63
2023-04-20T04:55:46.610Z,8.35
2023-04-20T04:58:15.525Z,7.90
2023-04-20T05:00:44.035Z,7.95
2023-04-20T05:03:12.341Z,7.95
2023-04-20T05:05:41.024Z,6.78
2023-04-20T05:08:09.241Z,7.63
2023-04-20T05:10:37.882Z,7.00
2023-04-20T05:13:06.185Z,6.82
2023-04-20T05:15:34.536Z,6.28
2023-04-20T05:18:02.971Z,6.78
2023-04-20T05:20:31.222Z,6.15
2023-04-20T05:22:59.446Z,6.53
2023-04-20T05:25:27.794Z,6.47
2023-04-20T05:27:55.981Z,7.03
2023-04-20T05:30:24.207Z,6.40
2023-04-20T05:32:52.795Z,5.30
2023-04-20T05:35:22.448Z,5.63
2023-04-20T05:37:50.682Z,5.40
2023-04-20T05:40:19.048Z,6.13
2023-04-20T05:42:47.992Z,5.60
2023-04-20T05:45:16.215Z,5.15
2023-04-20T05:47:56.402Z,5.82
2023-04-20T05:50:25.496Z,4.63
2023-04-20T05:52:54.322Z,5.22
2023-04-20T05:55:23.131Z,4.82
2023-04-20T05:57:52.494Z,4.38
2023-04-20T06:00:22.549Z,5.03
2023-04-20T06:02:54.547Z,4.38
2023-04-20T06:05:22.997Z,3.72
2023-04-20T06:07:51.320Z,4.10
2023-04-20T06:10:19.701Z,3.50
2023-04-20T06:12:48.235Z,3.30
2023-04-20T06:15:16.769Z,3.67
2023-04-20T06:17:45.038Z,3.63
2023-04-20T06:20:13.286Z,3.13
2023-04-20T06:22:45.577Z,3.60
2023-04-20T06:25:15.406Z,3.67
2023-04-20T06:27:43.759Z,3.22
2023-04-20T06:30:12.806Z,3.38
2023-04-20T06:32:41.094Z,3.10
2023-04-20T06:35:09.727Z,3.83
2023-04-20T06:37:38.769Z,3.85
2023-04-20T06:40:10.754Z,4.00
2023-04-20T06:42:39.052Z,3.63
2023-04-20T06:45:07.885Z,3.50
2023-04-20T06:47:36.242Z,3.70
2023-04-20T06:50:09.371Z,3.50
2023-04-20T06:52:39.485Z,3.53
2023-04-20T06:55:08.501Z,4.13
2023-04-20T06:57:38.834Z,3.67
2023-04-20T07:00:09.905Z,3.08
2023-04-20T07:02:51.658Z,3.72
2023-04-20T07:05:20.671Z,3.55
2023-04-20T07:07:49.070Z,4.63
2023-04-20T07:10:17.632Z,4.75
2023-04-20T07:12:46.291Z,3.60
2023-04-20T07:15:14.797Z,3.70
2023-04-20T07:17:43.029Z,3.08
2023-04-20T07:20:11.608Z,3.35
2023-04-20T07:22:40.313Z,2.90
2023-04-20T07:25:11.179Z,2.85
2023-04-20T07:27:41.018Z,2.70
2023-04-20T07:30:10.792Z,3.58
2023-04-20T07:32:41.189Z,3.50
2023-04-20T07:35:10.486Z,3.60
2023-04-20T07:37:38.956Z,3.40
2023-04-20T07:40:08.115Z,3.45
2023-04-20T07:42:37.386Z,3.10
2023-04-20T07:45:07.027Z,3.05
2023-04-20T07:47:35.979Z,2.97
2023-04-20T07:50:05.305Z,2.60
2023-04-20T07:52:35.863Z,3.47
2023-04-20T07:55:05.147Z,3.05
2023-04-20T07:57:33.491Z,2.67
2023-04-20T08:00:01.851Z,2.45
2023-04-20T08:02:42.018Z,2.45
2023-04-20T08:05:11.204Z,3.00
2023-04-20T08:07:39.945Z,2.53
2023-04-20T08:10:08.668Z,2.75
2023-04-20T08:12:37.277Z,2.38
2023-04-20T08:15:06.937Z,2.20
2023-04-20T08:17:35.728Z,2.40
2023-04-20T08:20:06.221Z,2.70
2023-04-20T08:22:34.852Z,2.83
2023-04-20T08:25:03.146Z,3.20
2023-04-20T08:27:32.795Z,2.97
2023-04-20T08:30:01.955Z,2.90
2023-04-20T08:32:30.267Z,2.53
2023-04-20T08:34:58.564Z,2.80
2023-04-20T08:37:27.130Z,3.05
2023-04-20T08:39:56.336Z,2.88
2023-04-20T08:42:24.576Z,3.00
2023-04-20T08:44:53.915Z,2.75
2023-04-20T08:47:22.521Z,3.40
2023-04-20T08:49:54.941Z,2.88
2023-04-20T08:52:23.174Z,3.20
2023-04-20T08:54:56.823Z,3.25
2023-04-20T08:57:26.419Z,3.70
2023-04-20T08:59:56.428Z,3.33
2023-04-20T09:02:24.797Z,3.20
2023-04-20T09:05:05.201Z,2.85
2023-04-20T09:07:33.843Z,3.47
2023-04-20T09:10:02.135Z,2.92
2023-04-20T09:12:42.224Z,3.35
2023-04-20T09:15:11.333Z,2.90
2023-04-20T09:17:41.239Z,2.92
2023-04-20T09:20:11.414Z,2.60
2023-04-20T09:22:41.541Z,2.78
2023-04-20T09:25:20.191Z,3.20
2023-04-20T09:27:59.599Z,3.05
2023-04-20T09:30:39.362Z,2.80
2023-04-20T09:33:08.678Z,2.72
2023-04-20T09:35:38.261Z,3.03
2023-04-20T09:38:07.692Z,3.25
2023-04-20T09:40:36.913Z,3.58
2023-04-20T09:43:24.395Z,3.00
2023-04-20T09:45:54.320Z,3.22
2023-04-20T09:48:23.024Z,2.72
2023-04-20T09:50:51.998Z,3.35
2023-04-20T09:53:20.668Z,2.42
2023-04-20T09:55:50.370Z,2.63
2023-04-20T09:58:22.092Z,2.60
2023-04-20T10:00:51.136Z,3.08
2023-04-20T10:03:20.574Z,3.00
2023-04-20T10:05:51.124Z,2.75
2023-04-20T10:08:20.899Z,2.85
2023-04-20T10:10:51.488Z,2.85
2023-04-20T10:13:21.844Z,3.10
2023-04-20T10:15:50.343Z,2.90
2023-04-20T10:18:24.585Z,3.45
2023-04-20T10:21:06.004Z,3.40
2023-04-20T10:23:34.327Z,2.92
2023-04-20T10:26:03.850Z,3.55
2023-04-20T10:28:40.423Z,3.70
2023-04-20T10:31:13.053Z,3.95
2023-04-20T10:34:08.608Z,4.22
2023-04-20T10:36:38.397Z,4.57
2023-04-20T10:39:19.394Z,4.32
2023-04-20T10:42:04.171Z,4.50
2023-04-20T10:44:34.058Z,4.60
2023-04-20T10:47:02.619Z,5.60
2023-04-20T10:49:32.313Z,5.30
2023-04-20T10:52:00.750Z,4.80
2023-04-20T10:54:38.227Z,4.60
2023-04-20T10:57:07.389Z,5.00
2023-04-20T10:59:37.308Z,4.78
2023-04-20T11:02:14.401Z,5.90
2023-04-20T11:04:43.130Z,5.68
2023-04-20T11:07:15.132Z,5.15
2023-04-20T11:09:43.597Z,5.72
2023-04-20T11:12:14.657Z,5.50
2023-04-20T11:14:53.020Z,7.00
2023-04-20T11:17:32.110Z,6.53
2023-04-20T11:20:10.994Z,6.47
2023-04-20T11:22:40.936Z,6.47
2023-04-20T11:25:11.581Z,5.80
2023-04-20T11:27:40.006Z,6.28
2023-04-20T11:30:10.029Z,6.10
2023-04-20T11:32:39.242Z,6.82
2023-04-20T11:35:11.025Z,5.82
2023-04-20T11:37:51.626Z,6.78
2023-04-20T11:42:48.612Z,6.55
2023-04-20T11:45:17.982Z,7.25
2023-04-20T11:47:47.444Z,6.80
2023-04-20T11:50:15.872Z,7.22
2023-04-20T11:52:44.294Z,7.88
2023-04-20T11:55:12.668Z,6.18
2023-04-20T11:57:41.050Z,6.65
2023-04-20T12:00:09.830Z,7.22
2023-04-20T12:02:44.044Z,6.28
2023-04-20T12:05:12.583Z,7.43
2023-04-20T12:07:40.960Z,6.85
2023-04-20T12:10:09.665Z,6.95
2023-04-20T12:12:38.507Z,7.75
2023-04-20T12:15:07.590Z,6.90
2023-04-20T12:17:35.919Z,6.15
2023-04-20T12:20:08.924Z,6.47
2023-04-20T12:22:37.281Z,6.00
2023-04-20T12:25:06.648Z,6.57
2023-04-20T12:27:34.853Z,4.95
2023-04-20T12:30:04.186Z,5.75
2023-04-20T12:32:32.665Z,6.03
2023-04-20T12:35:01.025Z,5.97
2023-04-20T12:37:29.253Z,5.68
2023-04-20T12:39:57.832Z,5.70
2023-04-20T12:42:26.121Z,5.43
2023-04-20T12:44:54.780Z,5.55
2023-04-20T12:47:23.170Z,6.03
2023-04-20T12:49:51.577Z,5.93
2023-04-20T12:52:19.960Z,5.35
2023-04-20T12:54:48.230Z,5.05
2023-04-20T12:57:17.106Z,4.97
2023-04-20T12:59:48.726Z,4.40
2023-04-20T13:02:17.757Z,4.18
2023-04-20T13:04:47.014Z,4.70
2023-04-20T13:07:15.476Z,3.67
2023-04-20T13:09:43.728Z,3.97
2023-04-20T13:12:12.760Z,3.53
2023-04-20T13:14:40.954Z,3.28
2023-04-20T13:17:09.223Z,3.30
2023-04-20T13:19:37.478Z,3.20
2023-04-20T13:22:05.842Z,3.35
2023-04-20T13:24:34.122Z,2.63
2023-04-20T13:27:02.559Z,2.50
2023-04-20T13:29:31.129Z,2.65
2023-04-20T13:31:59.441Z,2.72
2023-04-20T13:34:28.096Z,2.40
2023-04-20T13:36:56.693Z,2.08
2023-04-20T13:39:25.387Z,2.35
2023-04-20T13:41:53.630Z,2.40
2023-04-20T13:44:22.008Z,2.30
2023-04-20T13:46:50.704Z,1.73
2023-04-20T13:49:22.538Z,1.70
2023-04-20T13:51:51.039Z,1.35
2023-04-20T13:54:19.598Z,1.75
2023-04-20T13:56:48.020Z,1.70
2023-04-20T13:59:16.591Z,2.40
2023-04-20T14:01:44.927Z,2.30
2023-04-20T14:04:16.870Z,2.10
2023-04-20T14:06:45.410Z,2.13
2023-04-20T14:09:13.726Z,1.92
2023-04-20T14:11:43.644Z,2.75
2023-04-20T14:14:12.131Z,2.90
2023-04-20T14:16:47.959Z,2.65
2023-04-20T14:19:16.262Z,2.55
2023-04-20T14:21:46.492Z,2.55
2023-04-20T14:24:14.807Z,2.60
2023-04-20T14:26:43.861Z,2.65
2023-04-20T14:29:12.257Z,3.05
2023-04-20T14:31:40.608Z,2.80
2023-04-20T14:34:09.580Z,3.17
2023-04-20T14:36:37.830Z,3.50
2023-04-20T14:39:06.220Z,4.43
2023-04-20T14:41:34.988Z,3.53
2023-04-20T14:44:03.974Z,4.63
2023-04-20T14:46:32.343Z,4.25
2023-04-20T14:49:00.657Z,4.68
2023-04-20T14:51:29.039Z,4.20
2023-04-20T14:53:57.324Z,5.03
2023-04-20T14:56:25.546Z,4.70
2023-04-20T14:58:54.345Z,4.90
2023-04-20T15:01:22.674Z,4.53
2023-04-20T15:03:51.344Z,5.45
2023-04-20T15:06:19.782Z,5.03
2023-04-20T15:08:48.040Z,5.40
2023-04-20T15:11:16.236Z,6.00
2023-04-20T15:13:44.447Z,5.32
2023-04-20T15:16:12.872Z,4.95
2023-04-20T15:18:41.083Z,5.90
2023-04-20T15:21:10.877Z,5.72
2023-04-20T15:23:39.161Z,6.38
2023-04-20T15:26:08.299Z,5.85
2023-04-20T15:28:36.834Z,5.43
2023-04-20T15:31:09.444Z,6.50
2023-04-20T15:33:57.856Z,7.10
2023-04-20T15:36:27.470Z,6.50
2023-04-20T15:38:57.764Z,6.95
2023-04-20T15:41:28.812Z,6.43
2023-04-20T15:43:56.989Z,6.85
2023-04-20T15:46:26.814Z,6.10
2023-04-20T15:48:55.574Z,6.07
2023-04-20T15:51:25.510Z,6.85
2023-04-20T15:53:53.821Z,5.18
2023-04-20T15:56:22.769Z,6.13
2023-04-20T15:58:51.880Z,5.63
2023-04-20T16:01:22.336Z,4.32
2023-04-20T16:03:52.235Z,4.63
2023-04-20T16:06:21.046Z,4.80
2023-04-20T16:08:53.355Z,4.43
2023-04-20T16:11:23.216Z,3.40
2023-04-20T16:13:51.441Z,4.00
2023-04-20T16:16:19.661Z,3.95
2023-04-20T16:18:48.271Z,3.65
2023-04-20T16:21:16.632Z,3.30
2023-04-20T16:23:44.853Z,2.95
2023-04-20T16:26:13.066Z,3.40
2023-04-20T16:28:41.322Z,2.80
2023-04-20T16:31:09.629Z,2.65
2023-04-20T16:33:38.359Z,2.28
2023-04-20T16:36:06.920Z,2.83
2023-04-20T16:38:35.176Z,2.63
2023-04-20T16:41:03.589Z,2.08
2023-04-20T16:43:31.941Z,2.47
2023-04-20T16:46:00.335Z,1.92
2023-04-20T16:48:28.590Z,2.70
2023-04-20T16:50:56.840Z,2.10
2023-04-20T16:53:25.879Z,2.55
2023-04-20T16:55:54.285Z,2.17
2023-04-20T16:58:22.586Z,2.30
2023-04-20T17:00:51.136Z,3.05
2023-04-20T17:03:19.679Z,2.50
2023-04-20T17:05:48.076Z,2.55
2023-04-20T17:08:16.485Z,2.80
2023-04-20T17:10:44.761Z,2.28
2023-04-20T17:13:13.419Z,2.47
2023-04-20T17:15:42.895Z,2.40
2023-04-20T17:18:11.570Z,2.80
2023-04-20T17:20:40.774Z,2.40
2023-04-20T17:23:09.597Z,3.22
2023-04-20T17:25:38.414Z,3.85
2023-04-20T17:28:06.958Z,3.55
2023-04-20T17:30:35.239Z,3.78
2023-04-20T17:33:03.458Z,3.55
2023-04-20T17:35:31.700Z,3.45
2023-04-20T17:37:59.951Z,3.65
2023-04-20T17:40:28.206Z,3.58
2023-04-20T17:42:56.497Z,3.95
2023-04-20T17:45:24.796Z,4.00
2023-04-20T17:47:53.849Z,4.18
2023-04-20T17:50:22.772Z,4.32
2023-04-20T17:52:51.737Z,4.97
2023-04-20T17:55:20.130Z,4.47
2023-04-20T17:57:48.757Z,5.07
2023-04-20T18:00:17.450Z,4.93
2023-04-20T18:02:46.264Z,5.10
2023-04-20T18:05:14.788Z,5.38
2023-04-20T18:07:43.085Z,5.80
2023-04-20T18:10:13.619Z,5.53
2023-04-20T18:12:42.581Z,5.90
2023-04-20T18:15:11.689Z,6.28
2023-04-20T18:17:40.091Z,12.73
2023-04-20T18:20:08.977Z,13.68
2023-04-20T18:22:38.052Z,7.65
2023-04-20T18:25:06.674Z,6.57
2023-04-20T18:27:34.926Z,6.05
2023-04-20T18:30:03.296Z,6.57
2023-04-20T18:32:35.894Z,6.65
2023-04-20T18:35:10.317Z,6.57
2023-04-20T18:37:38.690Z,6.38
2023-04-20T18:40:07.699Z,6.72
2023-04-20T18:42:36.164Z,7.45
2023-04-20T18:45:06.127Z,7.88
2023-04-20T18:47:34.758Z,7.97
2023-04-20T18:50:03.234Z,8.00
2023-04-20T18:52:35.058Z,7.72
2023-04-20T18:55:04.097Z,7.57
2023-04-20T18:57:32.513Z,7.20
2023-04-20T19:00:00.826Z,7.22
2023-04-20T19:02:29.186Z,7.47
2023-04-20T19:04:57.549Z,7.13
2023-04-20T19:07:25.976Z,7.35
2023-04-20T19:09:54.255Z,6.30
2023-04-20T19:12:22.557Z,7.50
2023-04-20T19:14:50.838Z,6.00
2023-04-20T19:17:19.084Z,6.30
2023-04-20T19:19:48.268Z,6.30
2023-04-20T19:22:16.784Z,6.60
2023-04-20T19:24:45.062Z,6.00
2023-04-20T19:27:13.348Z,5.43
2023-04-20T19:29:41.650Z,5.70
2023-04-20T19:32:09.984Z,4.93
2023-04-20T19:34:38.246Z,5.47
2023-04-20T19:37:06.482Z,4.90
2023-04-20T19:39:34.917Z,5.15
2023-04-20T19:42:03.267Z,4.95
2023-04-20T19:44:31.535Z,4.82
2023-04-20T19:46:59.837Z,4.38
2023-04-20T19:49:28.098Z,5.05
2023-04-20T19:51:56.406Z,4.47
2023-04-20T19:54:24.704Z,4.30
2023-04-20T19:56:52.952Z,4.82
2023-04-20T19:59:21.369Z,4.28
2023-04-20T20:01:50.817Z,4.38
2023-04-20T20:04:20.458Z,3.90
2023-04-20T20:06:50.732Z,3.63
2023-04-20T20:09:21.608Z,3.80
2023-04-20T20:11:51.549Z,3.90
2023-04-20T20:14:19.934Z,4.05
2023-04-20T20:16:48.117Z,3.50
2023-04-20T20:19:18.220Z,3.92
2023-04-20T20:21:46.668Z,3.63
2023-04-20T20:24:14.995Z,3.70
2023-04-20T20:26:43.244Z,3.92
2023-04-20T20:29:11.542Z,4.03
2023-04-20T20:31:39.904Z,5.47
2023-04-20T20:34:09.280Z,5.10
2023-04-20T20:36:37.555Z,4.63
2023-04-20T20:39:06.672Z,4.43
2023-04-20T20:41:34.995Z,4.93
2023-04-20T20:44:03.340Z,4.03
2023-04-20T20:46:32.165Z,4.82
2023-04-20T20:49:01.273Z,5.20
2023-04-20T20:51:29.783Z,4.53
2023-04-20T20:53:58.742Z,5.30
2023-04-20T20:56:27.107Z,4.85
2023-04-20T20:58:55.614Z,5.40
2023-04-20T21:01:23.940Z,5.22
2023-04-20T21:03:52.341Z,4.90
2023-04-20T21:06:20.756Z,4.70
2023-04-20T21:08:49.098Z,4.75
2023-04-20T21:11:17.405Z,4.53
2023-04-20T21:13:45.688Z,4.60
2023-04-20T21:16:14.231Z,4.43
2023-04-20T21:18:42.525Z,4.15
2023-04-20T21:21:13.629Z,4.30
2023-04-20T21:23:41.889Z,3.83
2023-04-20T21:26:10.272Z,3.40
2023-04-20T21:28:38.521Z,4.13
2023-04-20T21:31:06.839Z,3.72
2023-04-20T21:33:35.915Z,3.50
2023-04-20T21:36:04.545Z,3.58
2023-04-20T21:38:32.794Z,3.35
2023-04-20T21:41:01.896Z,4.18
2023-04-20T21:43:30.238Z,3.13
2023-04-20T21:45:58.563Z,3.53
2023-04-20T21:48:26.877Z,3.30
2023-04-20T21:50:55.087Z,3.22
2023-04-20T21:53:23.404Z,3.58
2023-04-20T21:55:51.697Z,3.30
2023-04-20T21:58:19.975Z,3.50
2023-04-20T22:00:48.279Z,3.20
2023-04-20T22:03:16.906Z,2.72
2023-04-20T22:05:45.345Z,2.55
2023-04-20T22:08:15.289Z,2.92
2023-04-20T22:10:43.545Z,3.00
2023-04-20T22:13:13.334Z,2.20
2023-04-20T22:15:41.716Z,2.35
2023-04-20T22:18:11.313Z,1.80
2023-04-20T22:20:39.967Z,2.13
2023-04-20T22:23:08.185Z,1.80
2023-04-20T22:25:36.617Z,1.90
2023-04-20T22:28:04.943Z,1.60
2023-04-20T22:30:33.318Z,1.83
2023-04-20T22:33:02.265Z,1.50
2023-04-20T22:35:31.091Z,1.48
2023-04-20T22:37:59.548Z,1.23
2023-04-20T22:40:27.889Z,1.75
2023-04-20T22:42:56.179Z,1.10
2023-04-20T22:45:24.556Z,1.40
2023-04-20T22:47:52.964Z,1.70
2023-04-20T22:50:21.294Z,1.10
2023-04-20T22:52:50.912Z,1.40
2023-04-20T22:55:19.263Z,1.70
2023-04-20T22:57:47.532Z,1.50
2023-04-20T23:00:16.220Z,1.00
2023-04-20T23:02:44.798Z,1.65
2023-04-20T23:05:13.134Z,1.58
2023-04-20T23:07:41.667Z,1.27
2023-04-20T23:10:10.977Z,1.40
2023-04-20T23:12:39.251Z,1.75
2023-04-20T23:15:08.317Z,1.45
2023-04-20T23:17:36.650Z,1.20
2023-04-20T23:20:10.284Z,1.20
2023-04-20T23:22:38.554Z,1.60
2023-04-20T23:25:07.425Z,1.60
2023-04-20T23:27:35.940Z,1.20
2023-04-20T23:30:06.751Z,1.20
2023-04-20T23:32:35.733Z,1.60
2023-04-20T23:35:04.288Z,1.30
2023-04-20T23:37:32.576Z,1.33
2023-04-20T23:40:00.971Z,1.45
2023-04-20T23:42:29.275Z,1.40
2023-04-20T23:44:58.820Z,1.45
2023-04-20T23:47:27.146Z,1.20
2023-04-20T23:49:55.622Z,1.55
2023-04-20T23:52:23.992Z,1.60
2023-04-20T23:54:52.349Z,1.77
2023-04-20T23:57:20.660Z,1.98
2023-04-20T23:59:49.006Z,1.90
